createdAt,value
2022-11-01T17:02:26.916Z,94.75
2022-11-01T17:03:59.241Z,93.75
2022-11-01T17:05:30.943Z,94.00
2022-11-01T17:07:02.635Z,95.00
2022-11-01T17:08:34.412Z,92.25
2022-11-01T17:10:22.286Z,89.25
2022-11-01T17:11:54.438Z,101.00
2022-11-01T17:13:26.229Z,108.00
2022-11-01T17:14:58.058Z,104.75
2022-11-01T17:16:29.873Z,90.75
2022-11-01T17:18:05.433Z,109.75
2022-11-01T17:19:38.853Z,101.25
2022-11-01T17:21:11.844Z,102.25
2022-11-01T17:22:43.790Z,86.25
2022-11-01T17:24:16.207Z,93.50
2022-11-01T17:25:48.316Z,99.25
2022-11-01T17:27:20.248Z,98.75
2022-11-01T17:28:52.498Z,104.75
2022-11-01T17:30:24.424Z,91.50
2022-11-01T17:31:56.391Z,95.50
2022-11-01T17:33:28.277Z,111.00
2022-11-01T17:35:00.036Z,107.40
2022-11-01T17:36:31.857Z,107.50
2022-11-01T17:38:04.806Z,110.00
2022-11-01T17:39:36.958Z,118.60
2022-11-01T17:41:09.631Z,117.80
2022-11-01T17:42:41.401Z,119.80
2022-11-01T17:44:13.326Z,111.80
2022-11-01T17:45:45.670Z,116.20
2022-11-01T17:47:17.620Z,123.20
2022-11-01T17:48:50.818Z,120.00
2022-11-01T17:50:22.748Z,115.60
2022-11-01T17:51:56.976Z,111.40
2022-11-01T17:53:28.802Z,112.40
2022-11-01T17:55:00.577Z,100.60
2022-11-01T17:56:32.388Z,109.20
2022-11-01T17:58:04.607Z,108.60
2022-11-01T17:59:36.619Z,114.00
2022-11-01T18:01:08.489Z,106.20
2022-11-01T18:02:40.562Z,118.20
2022-11-01T18:04:12.421Z,119.00
2022-11-01T18:05:44.278Z,126.40
2022-11-01T18:07:16.961Z,126.40
2022-11-01T18:08:51.372Z,121.60
2022-11-01T18:10:51.830Z,113.00
2022-11-01T18:12:33.253Z,127.25
2022-11-01T18:14:15.098Z,127.75
2022-11-01T18:16:18.426Z,130.50
2022-11-01T18:18:09.621Z,129.75
2022-11-01T18:19:51.101Z,123.00
2022-11-01T18:21:32.792Z,126.25
2022-11-01T18:23:06.785Z,131.00
2022-11-01T18:24:43.765Z,121.25
2022-11-01T18:26:19.385Z,129.50
2022-11-01T18:27:51.375Z,131.00
2022-11-01T18:29:24.134Z,114.60
2022-11-01T18:31:03.190Z,125.50
2022-11-01T18:32:38.578Z,122.40
2022-11-01T18:34:42.004Z,118.75
2022-11-01T18:36:16.071Z,121.20
2022-11-01T18:38:13.393Z,112.80
2022-11-01T18:40:04.105Z,109.20
2022-11-01T18:41:35.823Z,114.40
2022-11-01T18:43:10.441Z,117.60
2022-11-01T18:44:42.103Z,102.00
2022-11-01T18:46:25.030Z,105.40
2022-11-01T18:48:01.485Z,109.50
2022-11-01T18:49:33.495Z,105.50
2022-11-01T18:51:06.047Z,103.00
2022-11-01T18:52:37.785Z,101.25
2022-11-01T18:54:09.392Z,96.75
2022-11-01T18:55:41.780Z,89.75
2022-11-01T18:57:17.437Z,92.75
2022-11-01T18:58:50.474Z,94.50
2022-11-01T19:00:22.228Z,93.75
2022-11-01T19:01:59.299Z,82.50
2022-11-01T19:03:31.141Z,82.25
2022-11-01T19:05:14.833Z,81.00
2022-11-01T19:06:46.608Z,80.00
2022-11-01T19:08:23.630Z,83.25
2022-11-01T19:09:56.828Z,76.00
2022-11-01T19:11:29.880Z,77.75
2022-11-01T19:13:01.570Z,81.25
2022-11-01T19:14:33.536Z,79.50
2022-11-01T19:16:05.674Z,79.75
2022-11-01T19:17:38.994Z,78.50
2022-11-01T19:19:14.403Z,69.25
2022-11-01T19:20:53.797Z,59.50
2022-11-01T19:22:40.232Z,57.25
2022-11-01T19:24:35.103Z,51.80
2022-11-01T19:26:27.783Z,48.00
2022-11-01T19:28:02.641Z,48.80
2022-11-01T19:29:34.489Z,47.20
2022-11-01T19:31:08.958Z,47.60
2022-11-01T19:32:40.653Z,46.40
2022-11-01T19:34:16.896Z,46.00
2022-11-01T19:35:50.859Z,46.80
2022-11-01T19:37:28.355Z,46.40
2022-11-01T19:39:02.215Z,42.20
2022-11-01T19:40:35.949Z,44.40
2022-11-01T19:42:29.028Z,41.00
2022-11-01T19:44:04.999Z,39.80
2022-11-01T19:45:37.985Z,38.00
2022-11-01T19:47:37.017Z,39.20
2022-11-01T19:49:38.320Z,32.60
2022-11-01T19:51:22.781Z,39.00
2022-11-01T19:52:57.965Z,26.20
2022-11-01T19:54:29.905Z,35.20
2022-11-01T19:56:02.255Z,34.00
2022-11-01T19:57:34.636Z,40.20
2022-11-01T19:59:11.449Z,44.60
2022-11-01T20:00:43.141Z,46.40
2022-11-01T20:02:17.000Z,47.40
2022-11-01T20:03:51.307Z,48.80
2022-11-01T20:05:25.306Z,50.40
2022-11-01T20:07:09.679Z,47.80
2022-11-01T20:08:41.468Z,50.40
2022-11-01T20:10:15.077Z,50.80
2022-11-01T20:11:46.863Z,48.40
2022-11-01T20:13:18.640Z,50.40
2022-11-01T20:14:50.361Z,56.75
2022-11-01T20:16:22.166Z,64.50
2022-11-01T20:17:53.932Z,65.00
2022-11-01T20:19:25.795Z,74.75
2022-11-01T20:20:58.716Z,73.25
2022-11-01T20:22:30.438Z,72.00
2022-11-01T20:24:04.000Z,78.00
2022-11-01T20:25:35.644Z,77.75
2022-11-01T20:27:07.585Z,75.25
2022-11-01T20:28:39.290Z,77.25
2022-11-01T20:30:11.150Z,80.25
2022-11-01T20:31:43.167Z,67.75
2022-11-01T20:33:16.354Z,90.25
2022-11-01T20:34:48.416Z,83.00
2022-11-01T20:36:20.168Z,85.50
2022-11-01T20:37:52.420Z,84.75
2022-11-01T20:39:25.350Z,87.25
2022-11-01T20:40:57.057Z,83.75
2022-11-01T20:42:28.842Z,87.25
2022-11-01T20:44:00.999Z,78.25
2022-11-01T20:45:34.883Z,79.50
2022-11-01T20:47:06.550Z,73.25
2022-11-01T20:48:38.324Z,84.25
2022-11-01T20:50:10.662Z,77.00
2022-11-01T20:51:43.357Z,76.75
2022-11-01T20:53:15.359Z,73.25
2022-11-01T20:54:47.049Z,77.25
2022-11-01T20:56:19.652Z,80.50
2022-11-01T20:57:53.739Z,89.00
2022-11-01T20:59:25.524Z,100.00
2022-11-01T21:00:57.795Z,100.80
2022-11-01T21:02:29.844Z,102.20
2022-11-01T21:04:01.612Z,97.50
2022-11-01T21:05:36.655Z,100.25
2022-11-01T21:07:14.712Z,106.00
2022-11-01T21:08:47.227Z,101.25
2022-11-01T21:10:32.016Z,99.60
2022-11-01T21:12:05.627Z,102.60
2022-11-01T21:13:39.206Z,102.25
2022-11-01T21:15:25.730Z,106.20
2022-11-01T21:16:58.988Z,102.25
2022-11-01T21:18:32.514Z,102.00
2022-11-01T21:20:05.084Z,101.40
2022-11-01T21:21:43.884Z,101.25
2022-11-01T21:23:35.633Z,102.50
2022-11-01T21:25:08.608Z,97.60
2022-11-01T21:26:42.020Z,92.50
2022-11-01T21:28:33.366Z,99.00
2022-11-01T21:30:15.358Z,102.75
2022-11-01T21:31:47.285Z,103.50
2022-11-01T21:33:37.920Z,91.00
2022-11-01T21:35:21.273Z,88.75
2022-11-01T21:36:53.070Z,100.00
2022-11-01T21:38:34.190Z,98.25
2022-11-01T21:40:14.509Z,90.25
2022-11-01T21:41:48.274Z,92.75
2022-11-01T21:43:24.533Z,84.25
2022-11-01T21:44:56.404Z,87.25
2022-11-01T21:46:28.233Z,89.75
2022-11-01T21:48:01.600Z,79.00
2022-11-01T21:49:33.614Z,99.00
2022-11-01T21:51:05.429Z,101.00
2022-11-01T21:52:37.161Z,113.40
2022-11-01T21:54:08.815Z,104.60
2022-11-01T21:55:40.705Z,107.40
2022-11-01T21:57:12.534Z,110.60
2022-11-01T21:58:44.251Z,115.20
2022-11-01T22:00:16.428Z,112.80
2022-11-01T22:01:48.355Z,106.20
2022-11-01T22:03:21.012Z,120.75
2022-11-01T22:04:52.933Z,116.40
2022-11-01T22:06:24.660Z,115.40
2022-11-01T22:07:56.373Z,119.25
2022-11-01T22:09:28.255Z,114.40
2022-11-01T22:11:00.006Z,106.00
2022-11-01T22:12:32.162Z,110.75
2022-11-01T22:14:04.082Z,104.00
2022-11-01T22:15:35.676Z,109.20
2022-11-01T22:17:07.501Z,166.00
2022-11-01T22:18:39.235Z,120.50
2022-11-01T22:20:11.220Z,129.00
2022-11-01T22:21:43.093Z,115.75
2022-11-01T22:23:14.802Z,120.25
2022-11-01T22:24:47.062Z,108.40
2022-11-01T22:26:18.894Z,111.00
2022-11-01T22:27:50.736Z,103.80
2022-11-01T22:29:22.512Z,114.00
2022-11-01T22:30:54.238Z,121.75
2022-11-01T22:32:25.970Z,118.25
2022-11-01T22:33:57.818Z,118.25
2022-11-01T22:35:29.590Z,122.25
2022-11-01T22:37:01.343Z,127.50
2022-11-01T22:38:38.618Z,129.25
2022-11-01T22:40:13.736Z,137.00
2022-11-01T22:41:45.448Z,138.50
2022-11-01T22:43:18.069Z,133.00
2022-11-01T22:44:49.885Z,133.00
2022-11-01T22:46:30.121Z,128.75
2022-11-01T22:48:01.908Z,133.25
2022-11-01T22:49:40.991Z,144.00
2022-11-01T22:51:24.072Z,145.50
2022-11-01T22:52:55.835Z,156.50
2022-11-01T22:55:12.667Z,140.50
2022-11-01T22:56:44.689Z,125.75
2022-11-01T22:58:35.807Z,119.75
2022-11-01T23:00:39.217Z,116.40
2022-11-01T23:02:27.841Z,122.75
2022-11-01T23:03:59.819Z,133.00
2022-11-01T23:05:31.552Z,120.00
2022-11-01T23:07:05.466Z,141.00
2022-11-01T23:08:38.711Z,144.00
2022-11-01T23:10:23.824Z,139.25
2022-11-01T23:12:14.216Z,136.00
2022-11-01T23:14:04.430Z,138.25
2022-11-01T23:15:36.784Z,139.50
2022-11-01T23:17:27.696Z,130.50
2022-11-01T23:19:03.622Z,134.75
2022-11-01T23:20:35.340Z,148.50
2022-11-01T23:22:13.198Z,135.25
2022-11-01T23:23:45.529Z,139.25
2022-11-01T23:25:17.239Z,142.25
2022-11-01T23:26:48.885Z,136.00
2022-11-01T23:28:20.598Z,128.50
2022-11-01T23:29:52.969Z,137.25
2022-11-01T23:31:26.720Z,133.25
2022-11-01T23:32:58.860Z,141.25
2022-11-01T23:34:30.609Z,139.00
